createdAt,value
2016-05-27T00:00:22.184Z,0
2016-05-27T00:01:22.217Z,0
2016-05-27T00:02:22.080Z,0
2016-05-27T00:03:22.270Z,0
2016-05-27T00:04:22.304Z,0
2016-05-27T00:05:22.416Z,0
2016-05-27T00:06:22.325Z,0
2016-05-27T00:07:22.297Z,0
2016-05-27T00:08:22.064Z,0
2016-05-27T00:09:22.411Z,0
2016-05-27T00:10:22.273Z,0
2016-05-27T00:11:22.135Z,0
2016-05-27T00:12:22.450Z,0
2016-05-27T00:13:22.343Z,0
2016-05-27T00:14:22.550Z,0
2016-05-27T00:15:22.646Z,0
2016-05-27T00:16:22.601Z,0
2016-05-27T00:17:22.463Z,0
2016-05-27T00:18:22.732Z,0
2016-05-27T00:19:22.797Z,0
2016-05-27T00:20:22.800Z,0
2016-05-27T00:21:22.552Z,0
2016-05-27T00:22:22.836Z,0
2016-05-27T00:23:22.745Z,0
2016-05-27T00:24:22.780Z,0
2016-05-27T00:25:22.860Z,0
2016-05-27T00:26:22.816Z,0
2016-05-27T00:27:22.537Z,0
2016-05-27T00:28:22.712Z,0
2016-05-27T00:29:22.886Z,0
2016-05-27T00:30:22.858Z,0
2016-05-27T00:31:22.954Z,0
2016-05-27T00:32:22.989Z,0
2016-05-27T00:33:23.147Z,0
2016-05-27T00:34:23.041Z,0
2016-05-27T00:35:23.058Z,0
2016-05-27T00:36:22.905Z,0
2016-05-27T00:37:23.127Z,0
2016-05-27T00:38:23.052Z,0
2016-05-27T00:39:23.241Z,0
2016-05-27T00:40:23.260Z,0
2016-05-27T00:41:23.294Z,0
2016-05-27T00:42:23.202Z,0
2016-05-27T00:43:23.190Z,0
2016-05-27T00:44:23.271Z,0
2016-05-27T00:45:23.321Z,0
2016-05-27T00:46:23.151Z,0
2016-05-27T00:47:23.341Z,0
2016-05-27T00:48:23.484Z,0
2016-05-27T00:49:23.472Z,0
2016-05-27T00:50:23.505Z,0
2016-05-27T00:51:23.446Z,0
2016-05-27T00:52:23.151Z,0
2016-05-27T00:53:23.498Z,0
2016-05-27T00:54:23.532Z,0
2016-05-27T00:55:23.550Z,0
2016-05-27T00:56:23.553Z,0
2016-05-27T00:57:23.759Z,0
2016-05-27T00:58:23.605Z,0
2016-05-27T00:59:23.327Z,0
2016-05-27T01:00:23.798Z,0
2016-05-27T01:01:23.691Z,0
2016-05-27T01:02:23.710Z,0
2016-05-27T01:03:23.587Z,0
2016-05-27T01:04:23.622Z,0
2016-05-27T01:05:23.717Z,0
2016-05-27T01:06:23.736Z,0
2016-05-27T01:07:23.676Z,0
2016-05-27T01:08:23.694Z,0
2016-05-27T01:09:23.916Z,0
2016-05-27T01:10:23.762Z,0
2016-05-27T01:11:23.921Z,0
2016-05-27T01:12:23.955Z,0
2016-05-27T01:13:24.067Z,0
2016-05-27T01:14:24.039Z,0
2016-05-27T01:15:23.869Z,0
2016-05-27T01:16:24.138Z,0
2016-05-27T01:17:24.094Z,0
2016-05-27T01:18:24.128Z,0
2016-05-27T01:19:24.130Z,0
2016-05-27T01:20:24.149Z,0
2016-05-27T01:21:24.010Z,0
2016-05-27T01:22:24.046Z,0
2016-05-27T01:23:24.328Z,0
2016-05-27T01:24:23.940Z,0
2016-05-27T01:25:24.131Z,0
2016-05-27T01:26:24.462Z,0
2016-05-27T01:27:24.309Z,0
2016-05-27T01:28:24.530Z,0
2016-05-27T01:29:24.454Z,0
2016-05-27T01:30:24.488Z,0
2016-05-27T01:31:24.397Z,0
2016-05-27T01:32:24.587Z,0
2016-05-27T01:33:24.918Z,0
2016-05-27T01:34:24.359Z,0
2016-05-27T01:35:24.517Z,0
2016-05-27T01:36:24.363Z,0
2016-05-27T01:37:24.648Z,0
2016-05-27T01:38:24.681Z,0
2016-05-27T01:39:24.591Z,0
2016-05-27T01:40:24.624Z,0
2016-05-27T01:41:24.486Z,0
2016-05-27T01:42:24.630Z,0
2016-05-27T01:43:24.773Z,0
2016-05-27T01:44:24.729Z,0
2016-05-27T01:45:24.607Z,0
2016-05-27T01:46:24.860Z,0
2016-05-27T01:47:24.862Z,0
2016-05-27T01:48:25.427Z,0
2016-05-27T01:49:24.854Z,0
2016-05-27T01:50:24.735Z,0
2016-05-27T01:51:25.023Z,0
2016-05-27T01:52:25.061Z,0
2016-05-27T01:53:25.036Z,0
2016-05-27T01:54:25.243Z,0
2016-05-27T01:55:25.097Z,0
2016-05-27T01:56:24.981Z,0
2016-05-27T01:57:24.991Z,0
2016-05-27T01:58:25.063Z,0
2016-05-27T01:59:25.212Z,0
2016-05-27T02:00:25.265Z,0
2016-05-27T02:01:25.271Z,0
2016-05-27T02:02:24.978Z,0
2016-05-27T02:03:25.390Z,0
2016-05-27T02:04:26.239Z,0
2016-05-27T02:05:25.398Z,0
2016-05-27T02:06:25.402Z,0
2016-05-27T02:07:25.422Z,0
2016-05-27T02:08:25.520Z,0
2016-05-27T02:09:25.475Z,0
2016-05-27T02:10:25.510Z,0
2016-05-27T02:11:25.528Z,0
2016-05-27T02:12:25.485Z,0
2016-05-27T02:13:25.566Z,0
2016-05-27T02:14:25.584Z,0
2016-05-27T02:15:25.649Z,0
2016-05-27T02:16:25.777Z,0
2016-05-27T02:17:25.671Z,0
2016-05-27T02:18:26.127Z,0
2016-05-27T02:19:26.067Z,0
2016-05-27T02:20:25.726Z,0
2016-05-27T02:21:25.790Z,0
2016-05-27T02:22:25.871Z,0
2016-05-27T02:23:25.796Z,0
2016-05-27T02:24:25.830Z,0
2016-05-27T02:25:25.848Z,0
2016-05-27T02:26:25.773Z,0
2016-05-27T02:27:25.884Z,0
2016-05-27T02:28:25.934Z,0
2016-05-27T02:29:25.937Z,0
2016-05-27T02:30:26.049Z,0
2016-05-27T02:31:25.989Z,0
2016-05-27T02:32:26.086Z,0
2016-05-27T02:33:26.213Z,0
2016-05-27T02:34:26.076Z,0
2016-05-27T02:35:26.078Z,0
2016-05-27T02:36:26.144Z,0
2016-05-27T02:37:26.161Z,0
2016-05-27T02:38:26.165Z,0
2016-05-27T02:39:26.230Z,0
2016-05-27T02:40:26.200Z,0
2016-05-27T02:41:26.219Z,4
2016-05-27T02:42:26.269Z,4
2016-05-27T02:43:26.272Z,4
2016-05-27T02:44:26.306Z,0
2016-05-27T02:45:26.324Z,0
2016-05-27T02:46:26.341Z,4
2016-05-27T02:47:26.391Z,4
2016-05-27T02:48:26.566Z,4
2016-05-27T02:49:26.850Z,4
2016-05-27T02:50:26.447Z,4
2016-05-27T02:51:26.309Z,4
2016-05-27T02:52:26.483Z,8
2016-05-27T02:53:26.502Z,4
2016-05-27T02:54:26.520Z,8
2016-05-27T02:55:26.585Z,8
2016-05-27T02:56:26.416Z,8
2016-05-27T02:57:26.450Z,12
2016-05-27T02:58:26.640Z,8
2016-05-27T02:59:26.502Z,12
2016-05-27T03:00:26.521Z,12
2016-05-27T03:01:26.712Z,16
2016-05-27T03:02:26.714Z,16
2016-05-27T03:03:26.607Z,20
2016-05-27T03:04:27.109Z,20
2016-05-27T03:05:26.909Z,20
2016-05-27T03:06:26.912Z,24
2016-05-27T03:07:26.837Z,24
2016-05-27T03:08:26.870Z,28
2016-05-27T03:09:26.748Z,28
2016-05-27T03:10:26.751Z,32
2016-05-27T03:11:26.925Z,32
2016-05-27T03:12:26.975Z,36
2016-05-27T03:13:26.977Z,40
2016-05-27T03:14:26.856Z,40
2016-05-27T03:15:27.030Z,44
2016-05-27T03:16:27.048Z,52
2016-05-27T03:17:27.066Z,56
2016-05-27T03:18:27.116Z,68
2016-05-27T03:19:27.978Z,72
2016-05-27T03:20:27.138Z,80
2016-05-27T03:21:27.171Z,84
2016-05-27T03:22:27.033Z,88
2016-05-27T03:23:27.208Z,96
2016-05-27T03:24:27.241Z,100
2016-05-27T03:25:27.213Z,108
2016-05-27T03:26:27.215Z,112
2016-05-27T03:27:27.515Z,116
2016-05-27T03:28:27.237Z,120
2016-05-27T03:29:27.193Z,116
2016-05-27T03:30:27.554Z,120
2016-05-27T03:31:27.573Z,128
2016-05-27T03:32:27.591Z,132
2016-05-27T03:33:28.234Z,136
2016-05-27T03:34:28.190Z,136
2016-05-27T03:35:27.396Z,136
2016-05-27T03:36:27.492Z,140
2016-05-27T03:37:27.683Z,140
2016-05-27T03:38:27.686Z,144
2016-05-27T03:39:27.672Z,148
2016-05-27T03:40:27.675Z,152
2016-05-27T03:41:27.537Z,156
2016-05-27T03:42:27.759Z,156
2016-05-27T03:43:27.792Z,160
2016-05-27T03:44:27.764Z,160
2016-05-27T03:45:27.642Z,156
2016-05-27T03:46:27.800Z,160
2016-05-27T03:47:27.835Z,160
2016-05-27T03:48:27.838Z,160
2016-05-27T03:49:28.261Z,164
2016-05-27T03:50:27.593Z,168
2016-05-27T03:51:27.877Z,168
2016-05-27T03:52:27.894Z,160
2016-05-27T03:53:27.913Z,152
2016-05-27T03:54:28.150Z,144
2016-05-27T03:55:27.965Z,144
2016-05-27T03:56:27.968Z,144
2016-05-27T03:57:28.002Z,144
2016-05-27T03:58:28.035Z,152
2016-05-27T03:59:28.054Z,168
2016-05-27T04:00:28.073Z,188
2016-05-27T04:01:28.106Z,208
2016-05-27T04:02:28.125Z,228
2016-05-27T04:03:28.581Z,252
2016-05-27T04:04:28.131Z,268
2016-05-27T04:05:28.133Z,276
2016-05-27T04:06:28.214Z,288
2016-05-27T04:07:28.248Z,288
2016-05-27T04:08:28.250Z,284
2016-05-27T04:09:28.128Z,260
2016-05-27T04:10:28.318Z,248
2016-05-27T04:11:28.431Z,240
2016-05-27T04:12:28.042Z,248
2016-05-27T04:13:28.373Z,260
2016-05-27T04:14:28.610Z,280
2016-05-27T04:15:28.269Z,304
2016-05-27T04:16:28.288Z,316
2016-05-27T04:17:28.322Z,324
2016-05-27T04:18:28.933Z,328
2016-05-27T04:19:28.749Z,336
2016-05-27T04:20:28.564Z,352
2016-05-27T04:21:28.441Z,368
2016-05-27T04:22:28.444Z,376
2016-05-27T04:23:28.682Z,384
2016-05-27T04:24:28.496Z,412
2016-05-27T04:25:28.375Z,436
2016-05-27T04:26:28.565Z,448
2016-05-27T04:27:28.723Z,440
2016-05-27T04:28:28.741Z,432
2016-05-27T04:29:28.776Z,428
2016-05-27T04:30:28.778Z,440
2016-05-27T04:31:28.796Z,444
2016-05-27T04:32:28.831Z,452
2016-05-27T04:33:29.051Z,476
2016-05-27T04:34:28.711Z,520
2016-05-27T04:35:28.870Z,568
2016-05-27T04:36:28.919Z,616
2016-05-27T04:37:28.922Z,660
2016-05-27T04:38:28.831Z,672
2016-05-27T04:39:28.834Z,648
2016-05-27T04:40:28.852Z,628
2016-05-27T04:41:29.026Z,584
2016-05-27T04:42:28.904Z,552
2016-05-27T04:43:29.064Z,552
2016-05-27T04:44:28.941Z,560
2016-05-27T04:45:29.116Z,592
2016-05-27T04:46:29.150Z,628
2016-05-27T04:47:28.996Z,644
2016-05-27T04:48:30.795Z,644
2016-05-27T04:49:29.079Z,620
2016-05-27T04:50:29.097Z,596
2016-05-27T04:51:29.116Z,584
2016-05-27T04:52:29.275Z,588
2016-05-27T04:53:29.308Z,592
2016-05-27T04:54:29.343Z,596
2016-05-27T04:55:29.346Z,604
2016-05-27T04:56:29.363Z,624
2016-05-27T04:57:29.398Z,644
2016-05-27T04:58:29.416Z,668
2016-05-27T04:59:29.450Z,704
2016-05-27T05:00:29.468Z,748
2016-05-27T05:01:29.502Z,788
2016-05-27T05:02:29.364Z,800
2016-05-27T05:03:29.664Z,800
2016-05-27T05:04:30.088Z,820
2016-05-27T05:05:29.700Z,848
2016-05-27T05:06:29.453Z,848
2016-05-27T05:07:29.675Z,840
2016-05-27T05:08:31.053Z,860
2016-05-27T05:09:29.664Z,836
2016-05-27T05:10:29.729Z,780
2016-05-27T05:11:29.732Z,696
2016-05-27T05:12:29.735Z,652
2016-05-27T05:13:29.863Z,660
2016-05-27T05:14:29.787Z,716
2016-05-27T05:15:29.806Z,792
2016-05-27T05:16:29.933Z,900
2016-05-27T05:17:29.858Z,1020
2016-05-27T05:18:29.767Z,1064
2016-05-27T05:19:29.894Z,980
2016-05-27T05:20:29.928Z,872
2016-05-27T05:21:29.946Z,792
2016-05-27T05:22:29.980Z,788
2016-05-27T05:23:30.014Z,852
2016-05-27T05:24:29.955Z,968
2016-05-27T05:25:30.066Z,1024
2016-05-27T05:26:30.085Z,984
2016-05-27T05:27:29.947Z,996
2016-05-27T05:28:30.122Z,1016
2016-05-27T05:29:29.985Z,1016
2016-05-27T05:30:30.173Z,1036
2016-05-27T05:31:30.286Z,1048
2016-05-27T05:32:30.211Z,1008
2016-05-27T05:33:30.276Z,928
2016-05-27T05:34:30.841Z,832
2016-05-27T05:35:30.126Z,768
2016-05-27T05:36:30.299Z,764
2016-05-27T05:37:30.318Z,808
2016-05-27T05:38:30.196Z,860
2016-05-27T05:39:30.479Z,896
2016-05-27T05:40:30.404Z,928
2016-05-27T05:41:30.531Z,964
2016-05-27T05:42:30.285Z,1012
2016-05-27T05:43:30.475Z,1080
2016-05-27T05:44:30.492Z,1156
2016-05-27T05:45:30.511Z,1236
2016-05-27T05:46:30.545Z,1308
2016-05-27T05:47:30.610Z,1340
2016-05-27T05:48:31.628Z,1328
2016-05-27T05:49:30.475Z,1292
2016-05-27T05:50:30.634Z,1280
2016-05-27T05:51:30.511Z,1300
2016-05-27T05:52:30.702Z,1308
2016-05-27T05:53:30.548Z,1324
2016-05-27T05:54:30.723Z,1304
2016-05-27T05:55:30.757Z,1252
2016-05-27T05:56:30.791Z,1196
2016-05-27T05:57:30.809Z,1144
2016-05-27T05:58:30.687Z,1104
2016-05-27T05:59:30.861Z,1136
2016-05-27T06:00:30.911Z,1208
2016-05-27T06:01:31.071Z,1268
2016-05-27T06:02:30.776Z,1272
2016-05-27T06:03:30.794Z,1240
2016-05-27T06:04:31.062Z,1180
2016-05-27T06:05:30.987Z,1116
2016-05-27T06:06:31.021Z,1096
2016-05-27T06:07:31.087Z,1124
2016-05-27T06:08:31.057Z,1184
2016-05-27T06:09:31.185Z,1272
2016-05-27T06:10:30.985Z,1384
2016-05-27T06:11:31.143Z,1496
2016-05-27T06:12:31.177Z,1544
2016-05-27T06:13:31.181Z,1512
2016-05-27T06:14:31.058Z,1428
2016-05-27T06:15:31.233Z,1348
2016-05-27T06:16:31.250Z,1352
2016-05-27T06:17:31.285Z,1432
2016-05-27T06:18:31.678Z,1536
2016-05-27T06:19:31.336Z,1604
2016-05-27T06:20:31.356Z,1600
2016-05-27T06:21:31.374Z,1548
2016-05-27T06:22:31.392Z,1476
2016-05-27T06:23:31.410Z,1436
2016-05-27T06:24:31.444Z,1412
2016-05-27T06:25:31.322Z,1372
2016-05-27T06:26:31.496Z,1320
2016-05-27T06:27:31.530Z,1268
2016-05-27T06:28:31.643Z,1272
2016-05-27T06:29:31.677Z,1336
2016-05-27T06:30:31.648Z,1444
2016-05-27T06:31:31.604Z,1568
2016-05-27T06:32:31.638Z,1672
2016-05-27T06:33:32.421Z,1728
2016-05-27T06:34:31.705Z,1716
2016-05-27T06:35:31.771Z,1656
2016-05-27T06:36:31.726Z,1576
2016-05-27T06:37:31.698Z,1532
2016-05-27T06:38:31.873Z,1516
2016-05-27T06:39:31.812Z,1520
2016-05-27T06:40:31.847Z,1524
2016-05-27T06:41:31.849Z,1536
2016-05-27T06:42:31.898Z,1548
2016-05-27T06:43:31.996Z,1564
2016-05-27T06:44:31.920Z,1580
2016-05-27T06:45:31.797Z,1584
2016-05-27T06:46:31.972Z,1584
2016-05-27T06:47:32.006Z,1584
2016-05-27T06:48:31.728Z,1576
2016-05-27T06:49:32.074Z,1568
2016-05-27T06:50:32.170Z,1572
2016-05-27T06:51:32.033Z,1592
2016-05-27T06:52:32.316Z,1588
2016-05-27T06:53:32.194Z,1548
2016-05-27T06:54:32.025Z,1496
2016-05-27T06:55:31.886Z,1472
2016-05-27T06:56:32.297Z,1488
2016-05-27T06:57:32.408Z,1540
2016-05-27T06:58:32.270Z,1612
2016-05-27T06:59:35.397Z,1704
2016-05-27T07:00:32.165Z,1796
2016-05-27T07:01:32.028Z,1876
2016-05-27T07:02:32.063Z,1872
2016-05-27T07:03:32.252Z,1820
2016-05-27T07:04:36.457Z,1736
2016-05-27T07:05:32.508Z,1644
2016-05-27T07:06:32.385Z,1628
2016-05-27T07:07:32.481Z,1724
2016-05-27T07:08:32.407Z,1876
2016-05-27T07:09:33.893Z,2048
2016-05-27T07:10:32.568Z,2192
2016-05-27T07:11:32.445Z,2312
2016-05-27T07:12:32.620Z,2360
2016-05-27T07:13:32.732Z,2340
2016-05-27T07:14:34.828Z,2292
2016-05-27T07:15:32.769Z,2248
2016-05-27T07:16:32.772Z,2228
2016-05-27T07:17:32.789Z,2152
2016-05-27T07:18:32.793Z,2064
2016-05-27T07:19:36.842Z,1944
2016-05-27T07:20:32.814Z,1876
2016-05-27T07:21:32.847Z,1848
2016-05-27T07:22:32.882Z,1836
2016-05-27T07:23:32.728Z,1872
2016-05-27T07:24:34.324Z,1908
2016-05-27T07:25:32.936Z,1928
2016-05-27T07:26:32.814Z,1928
2016-05-27T07:27:32.989Z,1892
2016-05-27T07:28:33.022Z,1884
2016-05-27T07:29:34.932Z,1944
2016-05-27T07:30:33.075Z,2084
2016-05-27T07:31:32.938Z,2240
2016-05-27T07:32:33.127Z,2368
2016-05-27T07:33:32.988Z,2448
2016-05-27T07:34:33.836Z,2548
2016-05-27T07:35:33.198Z,2656
2016-05-27T07:36:33.232Z,2748
2016-05-27T07:37:33.250Z,2816
2016-05-27T07:38:33.284Z,2820
2016-05-27T07:39:34.973Z,2796
2016-05-27T07:40:33.446Z,2720
2016-05-27T07:41:33.479Z,2596
2016-05-27T07:42:33.482Z,2488
2016-05-27T07:43:33.500Z,2428
2016-05-27T07:44:37.332Z,2332
2016-05-27T07:45:33.520Z,2268
2016-05-27T07:46:33.571Z,2240
2016-05-27T07:47:33.590Z,2188
2016-05-27T07:48:33.592Z,2104
2016-05-27T07:49:33.453Z,1984
2016-05-27T07:50:33.598Z,1820
2016-05-27T07:51:33.459Z,1700
2016-05-27T07:52:33.727Z,1688
2016-05-27T07:53:33.761Z,1724
2016-05-27T07:54:37.108Z,1732
2016-05-27T07:55:33.766Z,1692
2016-05-27T07:56:33.644Z,1620
2016-05-27T07:57:33.788Z,1640
2016-05-27T07:58:33.650Z,1740
2016-05-27T07:59:36.949Z,1888
2016-05-27T08:00:33.687Z,1988
2016-05-27T08:01:33.877Z,1960
2016-05-27T08:02:33.738Z,1900
2016-05-27T08:03:33.929Z,1960
2016-05-27T08:04:37.541Z,2044
2016-05-27T08:05:33.982Z,2028
2016-05-27T08:06:33.843Z,1884
2016-05-27T08:07:34.112Z,1768
2016-05-27T08:08:34.114Z,1760
2016-05-27T08:09:36.961Z,1728
2016-05-27T08:10:34.338Z,1720
2016-05-27T08:11:34.201Z,1692
2016-05-27T08:12:34.109Z,1684
2016-05-27T08:13:34.113Z,1728
2016-05-27T08:14:35.709Z,1804
2016-05-27T08:15:34.290Z,1884
2016-05-27T08:16:34.433Z,1944
2016-05-27T08:17:34.436Z,2004
2016-05-27T08:18:34.439Z,2092
2016-05-27T08:19:38.019Z,2220
2016-05-27T08:20:34.459Z,2344
2016-05-27T08:21:34.478Z,2440
2016-05-27T08:22:34.167Z,2504
2016-05-27T08:23:34.546Z,2584
2016-05-27T08:24:34.720Z,2612
2016-05-27T08:25:34.519Z,2628
2016-05-27T08:26:34.538Z,2612
2016-05-27T08:27:34.556Z,2584
2016-05-27T08:28:34.700Z,2512
2016-05-27T08:29:37.968Z,2416
2016-05-27T08:30:34.705Z,2308
2016-05-27T08:31:34.770Z,2132
2016-05-27T08:32:34.757Z,1888
2016-05-27T08:33:34.760Z,1672
2016-05-27T08:34:41.216Z,1564
2016-05-27T08:35:34.688Z,1540
2016-05-27T08:36:34.799Z,1524
2016-05-27T08:37:34.833Z,1492
2016-05-27T08:38:34.851Z,1464
2016-05-27T08:39:34.901Z,1444
2016-05-27T08:40:34.919Z,1416
2016-05-27T08:41:34.938Z,1376
2016-05-27T08:42:34.799Z,1360
2016-05-27T08:43:35.006Z,1392
2016-05-27T08:44:38.196Z,1480
2016-05-27T08:45:35.042Z,1588
2016-05-27T08:46:35.107Z,1708
2016-05-27T08:47:35.110Z,1836
2016-05-27T08:48:35.128Z,1920
2016-05-27T08:49:39.443Z,1980
2016-05-27T08:50:35.181Z,2032
2016-05-27T08:51:35.215Z,2092
2016-05-27T08:52:34.937Z,2108
2016-05-27T08:53:35.267Z,2080
2016-05-27T08:54:36.489Z,1964
2016-05-27T08:55:35.163Z,1808
2016-05-27T08:56:35.197Z,1656
2016-05-27T08:57:35.231Z,1552
2016-05-27T08:58:35.436Z,1548
2016-05-27T08:59:36.549Z,1648
2016-05-27T09:00:35.316Z,1812
2016-05-27T09:01:35.476Z,1980
2016-05-27T09:02:35.510Z,2104
2016-05-27T09:03:35.388Z,2152
2016-05-27T09:04:36.891Z,2136
2016-05-27T09:05:35.596Z,2096
2016-05-27T09:06:35.630Z,2044
2016-05-27T09:07:35.492Z,1980
2016-05-27T09:08:35.526Z,1928
2016-05-27T09:09:35.701Z,1888
2016-05-27T09:10:35.735Z,1860
2016-05-27T09:11:35.752Z,1832
2016-05-27T09:12:35.630Z,1832
2016-05-27T09:13:35.945Z,1864
2016-05-27T09:14:35.840Z,1892
2016-05-27T09:15:35.732Z,1932
2016-05-27T09:16:35.594Z,2004
2016-05-27T09:17:35.768Z,2056
2016-05-27T09:18:35.960Z,2060
2016-05-27T09:19:39.634Z,2076
2016-05-27T09:20:36.011Z,2120
2016-05-27T09:21:36.045Z,2152
2016-05-27T09:22:36.078Z,2184
2016-05-27T09:23:35.926Z,2284
2016-05-27T09:24:38.273Z,2460
2016-05-27T09:25:36.150Z,2608
2016-05-27T09:26:36.168Z,2672
2016-05-27T09:27:36.045Z,2716
2016-05-27T09:28:36.236Z,2740
2016-05-27T09:29:36.114Z,2680
2016-05-27T09:30:36.366Z,2584
2016-05-27T09:31:36.166Z,2516
2016-05-27T09:32:36.434Z,2480
2016-05-27T09:33:36.327Z,2448
2016-05-27T09:34:36.189Z,2392
2016-05-27T09:35:36.489Z,2356
2016-05-27T09:36:36.492Z,2300
2016-05-27T09:37:36.510Z,2248
2016-05-27T09:38:36.357Z,2248
2016-05-27T09:39:36.328Z,2292
2016-05-27T09:40:36.627Z,2396
2016-05-27T09:41:37.833Z,2540
2016-05-27T09:42:36.680Z,2692
2016-05-27T09:43:36.698Z,2824
2016-05-27T09:44:38.466Z,2968
2016-05-27T09:45:37.579Z,3132
2016-05-27T09:46:36.737Z,3132
2016-05-27T09:47:36.771Z,3176
2016-05-27T09:48:36.806Z,3152
2016-05-27T09:49:37.339Z,3164
2016-05-27T09:50:36.686Z,3240
2016-05-27T09:51:36.720Z,3320
2016-05-27T09:52:37.019Z,3352
2016-05-27T09:53:37.022Z,3312
2016-05-27T09:54:37.165Z,3260
2016-05-27T09:55:37.043Z,3260
2016-05-27T09:56:36.920Z,3372
2016-05-27T09:57:37.095Z,3420
2016-05-27T09:58:37.003Z,3376
2016-05-27T09:59:37.007Z,3304
2016-05-27T10:00:37.181Z,3400
2016-05-27T10:01:37.341Z,3596
2016-05-27T10:02:37.327Z,3892
2016-05-27T10:03:37.346Z,4036
2016-05-27T10:04:37.285Z,4064
2016-05-27T10:05:37.367Z,4136
2016-05-27T10:06:37.073Z,4204
2016-05-27T10:07:37.435Z,4240
2016-05-27T10:08:37.437Z,4168
2016-05-27T10:09:37.487Z,4176
2016-05-27T10:10:37.254Z,4324
2016-05-27T10:11:37.445Z,4140
2016-05-27T10:12:37.339Z,4180
2016-05-27T10:13:37.513Z,4220
2016-05-27T10:14:37.532Z,4144
2016-05-27T10:15:37.424Z,3904
2016-05-27T10:16:37.427Z,3772
2016-05-27T10:17:37.618Z,3668
2016-05-27T10:18:37.652Z,3564
2016-05-27T10:19:38.435Z,3620
2016-05-27T10:20:37.720Z,3752
2016-05-27T10:21:37.753Z,3784
2016-05-27T10:22:37.772Z,3740
2016-05-27T10:23:37.806Z,3744
2016-05-27T10:24:37.824Z,3960
2016-05-27T10:25:37.858Z,4052
2016-05-27T10:26:37.876Z,4156
2016-05-27T10:27:37.926Z,4312
2016-05-27T10:28:37.944Z,4312
2016-05-27T10:29:37.962Z,4128
2016-05-27T10:30:38.012Z,4024
2016-05-27T10:31:38.030Z,3924
2016-05-27T10:32:38.049Z,3528
2016-05-27T10:33:38.098Z,3296
2016-05-27T10:34:38.741Z,3156
2016-05-27T10:35:38.150Z,3040
2016-05-27T10:36:38.169Z,3064
2016-05-27T10:37:38.046Z,3168
2016-05-27T10:38:38.081Z,3072
2016-05-27T10:39:38.271Z,2952
2016-05-27T10:40:38.148Z,3132
2016-05-27T10:41:38.167Z,3500
2016-05-27T10:42:38.201Z,3608
2016-05-27T10:43:38.391Z,3388
2016-05-27T10:44:38.410Z,3100
2016-05-27T10:45:38.287Z,2820
2016-05-27T10:46:38.493Z,2592
2016-05-27T10:47:38.526Z,2372
2016-05-27T10:48:38.529Z,2060
2016-05-27T10:49:39.359Z,1808
2016-05-27T10:50:38.487Z,1680
2016-05-27T10:51:38.476Z,1604
2016-05-27T10:52:38.649Z,1544
2016-05-27T10:53:38.386Z,1444
2016-05-27T10:54:38.576Z,1300
2016-05-27T10:55:38.798Z,1196
2016-05-27T10:56:38.810Z,1152
2016-05-27T10:57:38.855Z,1136
2016-05-27T10:58:38.914Z,1116
2016-05-27T10:59:38.677Z,1088
2016-05-27T11:00:39.034Z,1144
2016-05-27T11:01:39.077Z,1248
2016-05-27T11:02:38.964Z,1340
2016-05-27T11:03:39.148Z,1360
2016-05-27T11:04:39.768Z,1316
2016-05-27T11:05:39.172Z,1256
2016-05-27T11:06:39.350Z,1248
2016-05-27T11:07:39.356Z,1260
2016-05-27T11:08:39.221Z,1228
2016-05-27T11:09:39.243Z,1140
2016-05-27T11:10:39.687Z,1020
2016-05-27T11:11:39.222Z,964
2016-05-27T11:12:39.538Z,964
2016-05-27T11:13:39.432Z,1012
2016-05-27T11:14:39.609Z,1060
2016-05-27T11:15:39.628Z,1072
2016-05-27T11:16:39.491Z,1080
2016-05-27T11:17:39.650Z,1064
2016-05-27T11:18:39.652Z,1012
2016-05-27T11:19:39.828Z,964
2016-05-27T11:20:39.628Z,956
2016-05-27T11:21:39.724Z,940
2016-05-27T11:22:39.774Z,944
2016-05-27T11:23:39.637Z,944
2016-05-27T11:24:39.811Z,916
2016-05-27T11:25:39.862Z,892
2016-05-27T11:26:39.896Z,848
2016-05-27T11:27:39.602Z,824
2016-05-27T11:28:40.041Z,840
2016-05-27T11:29:40.044Z,872
2016-05-27T11:30:40.218Z,864
2016-05-27T11:31:40.080Z,828
2016-05-27T11:32:40.240Z,836
2016-05-27T11:33:40.085Z,832
2016-05-27T11:34:40.293Z,804
2016-05-27T11:35:40.248Z,800
2016-05-27T11:36:40.109Z,816
2016-05-27T11:37:40.129Z,828
2016-05-27T11:38:40.412Z,824
2016-05-27T11:39:40.274Z,820
2016-05-27T11:40:40.418Z,836
2016-05-27T11:41:40.404Z,900
2016-05-27T11:42:40.267Z,1056
2016-05-27T11:43:40.457Z,1216
2016-05-27T11:44:40.459Z,1412
2016-05-27T11:45:40.462Z,1500
2016-05-27T11:46:40.325Z,1352
2016-05-27T11:47:40.514Z,1116
2016-05-27T11:48:40.392Z,936
2016-05-27T11:49:40.426Z,836
2016-05-27T11:50:41.163Z,848
2016-05-27T11:51:40.635Z,944
2016-05-27T11:52:40.653Z,1136
2016-05-27T11:53:40.702Z,1352
2016-05-27T11:54:40.721Z,1480
2016-05-27T11:55:40.786Z,1468
2016-05-27T11:56:40.772Z,1380
2016-05-27T11:57:40.822Z,1244
2016-05-27T11:58:40.841Z,1204
2016-05-27T11:59:40.718Z,1288
2016-05-27T12:00:40.925Z,1528
2016-05-27T12:01:40.771Z,1592
2016-05-27T12:02:40.805Z,1508
2016-05-27T12:03:40.995Z,1484
2016-05-27T12:04:40.873Z,1376
2016-05-27T12:05:41.047Z,1328
2016-05-27T12:06:40.941Z,1320
2016-05-27T12:07:41.099Z,1268
2016-05-27T12:08:41.009Z,1168
2016-05-27T12:09:41.167Z,1096
2016-05-27T12:10:41.202Z,980
2016-05-27T12:11:41.392Z,892
2016-05-27T12:12:41.285Z,904
2016-05-27T12:13:41.412Z,880
2016-05-27T12:14:41.353Z,828
2016-05-27T12:15:41.324Z,780
2016-05-27T12:16:41.483Z,760
2016-05-27T12:17:41.329Z,796
2016-05-27T12:18:41.535Z,880
2016-05-27T12:19:41.789Z,940
2016-05-27T12:20:41.400Z,956
2016-05-27T12:21:41.402Z,968
2016-05-27T12:22:41.562Z,988
2016-05-27T12:23:41.689Z,980
2016-05-27T12:24:41.708Z,960
2016-05-27T12:25:41.586Z,928
2016-05-27T12:26:41.728Z,896
2016-05-27T12:27:41.700Z,828
2016-05-27T12:28:41.718Z,732
2016-05-27T12:29:41.658Z,668
2016-05-27T12:30:41.630Z,632
2016-05-27T12:31:41.663Z,604
2016-05-27T12:32:41.713Z,556
2016-05-27T12:33:41.732Z,512
2016-05-27T12:34:42.297Z,472
2016-05-27T12:35:41.941Z,436
2016-05-27T12:36:41.990Z,396
2016-05-27T12:37:42.008Z,372
2016-05-27T12:38:41.715Z,376
2016-05-27T12:39:42.060Z,392
2016-05-27T12:40:42.079Z,420
2016-05-27T12:41:42.113Z,468
2016-05-27T12:42:42.162Z,528
2016-05-27T12:43:42.024Z,620
2016-05-27T12:44:42.198Z,648
2016-05-27T12:45:42.233Z,596
2016-05-27T12:46:42.267Z,532
2016-05-27T12:47:42.129Z,496
2016-05-27T12:48:42.179Z,480
2016-05-27T12:49:43.134Z,476
2016-05-27T12:50:42.387Z,492
2016-05-27T12:51:42.453Z,544
2016-05-27T12:52:42.455Z,628
2016-05-27T12:53:42.505Z,740
2016-05-27T12:54:43.178Z,860
2016-05-27T12:55:42.541Z,944
2016-05-27T12:56:42.559Z,936
2016-05-27T12:57:42.578Z,892
2016-05-27T12:58:42.627Z,840
2016-05-27T12:59:42.646Z,784
2016-05-27T13:00:42.664Z,788
2016-05-27T13:01:42.698Z,816
2016-05-27T13:02:42.747Z,764
2016-05-27T13:03:42.749Z,716
2016-05-27T13:04:42.800Z,708
2016-05-27T13:05:42.802Z,744
2016-05-27T13:06:42.852Z,820
2016-05-27T13:07:42.871Z,896
2016-05-27T13:08:42.748Z,908
2016-05-27T13:09:42.923Z,868
2016-05-27T13:10:42.957Z,860
2016-05-27T13:11:43.022Z,848
2016-05-27T13:12:43.024Z,820
2016-05-27T13:13:43.043Z,796
2016-05-27T13:14:43.077Z,764
2016-05-27T13:15:42.939Z,768
2016-05-27T13:16:43.129Z,884
2016-05-27T13:17:43.162Z,988
2016-05-27T13:18:43.181Z,896
2016-05-27T13:19:43.512Z,760
2016-05-27T13:20:43.249Z,628
2016-05-27T13:21:43.283Z,584
2016-05-27T13:22:43.145Z,572
2016-05-27T13:23:43.335Z,588
2016-05-27T13:24:43.384Z,660
2016-05-27T13:25:43.387Z,728
2016-05-27T13:26:43.422Z,724
2016-05-27T13:27:43.439Z,676
2016-05-27T13:28:43.317Z,588
2016-05-27T13:29:43.508Z,504
2016-05-27T13:30:43.369Z,456
2016-05-27T13:31:43.560Z,456
2016-05-27T13:32:43.578Z,472
2016-05-27T13:33:43.628Z,496
2016-05-27T13:34:44.178Z,500
2016-05-27T13:35:43.680Z,508
2016-05-27T13:36:43.558Z,528
2016-05-27T13:37:43.732Z,536
2016-05-27T13:38:43.766Z,512
2016-05-27T13:39:43.784Z,476
2016-05-27T13:40:43.819Z,468
2016-05-27T13:41:43.696Z,496
2016-05-27T13:42:43.887Z,560
2016-05-27T13:43:43.748Z,652
2016-05-27T13:44:43.782Z,744
2016-05-27T13:45:43.972Z,800
2016-05-27T13:46:43.990Z,844